Terminal Aerodrome Forecast
Issued by NWS

Home | Current Version | Previous Version | Text Only | Print | Product List | Glossary Off
Versions: 1 2 3 4 5 6 7 8 9 10 11 12 13 14 15 16 17

000
FTUS43 KMPX 310906 AAA
TAFRNH
TAF AMD
KRNH 310906Z 3109/0106 00000KT 1/4SM FG VV001
     FM311200 VRB03KT 4SM BR SKC
     FM311300 28007KT P6SM SKC
     FM311600 31014G21KT P6SM FEW090=

USA.gov is the U.S. government's official web portal to all federal, state and local government web resources and services.